Detall de PIREP

Printer-friendly versionPDF version

[2011/01/19 15:08:00]
Flight IATA:CT3404
Pilot Number:042
Company ICAO:CAT
Aircraft Type:B763/F
PAX:200
Departing Airport: LEBL
Destination Airport: GCLP
Alternate Airport:GCXO
Online: VATSIM
Route:LOTOS UM985 PIMOS UN869 GALTO UN869 RUSIK
Flight Level:F350
No Slew and time accel
No pause
Crash detect
Detect pilot in Cockpit between each 30 and 45 minutes
15:08 Zero fuel Weight: 244975 Lbs, Fuel Weight: 161395 Lbs
15:08 VATSIM:LEBL 191430Z 15005KT 110V190 9999 FEW025 13/10 Q1022 NOSIG
15:08 VATSIM:GCLP 191430Z 05009KT 020V080 9999 FEW025 21/13 Q1018 NOSIG
15:08 VOICE CATALONIAN
15:16 Parking Brakes off
15:21 Take-off
15:21 Take off Weight: 403702 Lbs
15:21 Wind: 146 @ 005 Knots Heading: 244
15:21 POS N41 17 03 E002 04 49
15:21 Gear Up: 181 Knots
15:21 Flaps:3 at 181 Knots
15:21 Flaps:2 at 181 Knots
15:21 Flaps:1 at 190 Knots
15:22 Flaps:0 at 229 Knots
15:36 Wind:229@034 Knots Heading: 227 Ground Speed: 417 Knots Altitude 33300 ft
15:37 TOC
15:37 Fuel Weight: 150568 Lb
15:51 Wind:226@039 Knots Heading: 232 Ground Speed: 410 Knots Altitude 35252 ft
16:06 Wind:216@040 Knots Heading: 224 Ground Speed: 412 Knots Altitude 35229 ft
16:21 Wind:221@029 Knots Heading: 225 Ground Speed: 423 Knots Altitude 35219 ft
16:36 Wind:252@030 Knots Heading: 218 Ground Speed: 430 Knots Altitude 35167 ft
16:51 Wind:288@050 Knots Heading: 217 Ground Speed: 440 Knots Altitude 35134 ft
17:06 Wind:284@042 Knots Heading: 215 Ground Speed: 447 Knots Altitude 35134 ft
17:21 Wind:271@040 Knots Heading: 215 Ground Speed: 439 Knots Altitude 35121 ft
17:36 Wind:263@044 Knots Heading: 247 Ground Speed: 417 Knots Altitude 35114 ft
17:51 Wind:283@032 Knots Heading: 246 Ground Speed: 434 Knots Altitude 35137 ft
17:53 TOD
17:53 Fuel Weight: 123304 Lb
18:06 Wind:283@017 Knots Heading: 220 Ground Speed: 336 Knots Altitude 20872 ft
18:11 Flaps:1 at 236 Knots
18:20 Flaps:2 at 205 Knots
18:21 Wind:029@010 Knots Heading: 231 Ground Speed: 221 Knots Altitude 2821 ft
18:21 Flaps:3 at 193 Knots
18:26 Gear Down: 166 Knots
18:26 Flaps:4 at 164 Knots
18:26 Flaps:5 at 164 Knots
18:29 TouchDown:Rate -164 ft/min Speed: 143 Knots
18:30 VATSIM:GCLP 191800Z 03010KT 9999 FEW025 19/13 Q1018 NOSIG
18:30 Land
18:30 Wind:038@010 Knots
18:30 Heading: 019
18:30 Flight Duration: 03:09
18:30 Landing Weight: 363159 Lbs
18:30 POS N27 55 54 W015 23 12
18:30 Parking brakes on
18:30 Block to Block Duration: 03:14
18:30 Final Fuel: 118172 Lbls
18:30 Spent Fuel: 43223 Lbls
18:30 Flight Length: 1237 NM
18:30 TOD Land Length: 171 NM

Exportar CSV

Powered by Drupal - Modified by Danger4k